sensor_id;sensor_type;location;lat;lon;timestamp;P1;durP1;ratioP1;P2;durP2;ratioP2
40967;SDS011;57377;45.130;6.038;2023-02-25T00:00:23;18.88;;;4.90;;
40967;SDS011;57377;45.130;6.038;2023-02-25T00:02:49;18.45;;;4.18;;
40967;SDS011;57377;45.130;6.038;2023-02-25T00:05:15;13.35;;;4.43;;
40967;SDS011;57377;45.130;6.038;2023-02-25T00:07:41;22.98;;;4.97;;
40967;SDS011;57377;45.130;6.038;2023-02-25T00:10:08;26.27;;;6.30;;
40967;SDS011;57377;45.130;6.038;2023-02-25T00:12:41;43.90;;;11.75;;
40967;SDS011;57377;45.130;6.038;2023-02-25T00:15:07;32.40;;;8.77;;
40967;SDS011;57377;45.130;6.038;2023-02-25T00:17:34;26.65;;;8.02;;
40967;SDS011;57377;45.130;6.038;2023-02-25T00:20:00;36.08;;;10.13;;
40967;SDS011;57377;45.130;6.038;2023-02-25T00:22:26;69.72;;;19.70;;
40967;SDS011;57377;45.130;6.038;2023-02-25T00:24:55;88.78;;;22.27;;
40967;SDS011;57377;45.130;6.038;2023-02-25T00:27:22;54.97;;;15.52;;
40967;SDS011;57377;45.130;6.038;2023-02-25T00:29:51;64.20;;;18.77;;
40967;SDS011;57377;45.130;6.038;2023-02-25T00:32:17;108.85;;;29.58;;
40967;SDS011;57377;45.130;6.038;2023-02-25T00:34:43;128.15;;;39.72;;
40967;SDS011;57377;45.130;6.038;2023-02-25T00:37:10;107.50;;;37.05;;
40967;SDS011;57377;45.130;6.038;2023-02-25T00:39:35;47.75;;;13.35;;
40967;SDS011;57377;45.130;6.038;2023-02-25T00:42:13;74.95;;;24.33;;
40967;SDS011;57377;45.130;6.038;2023-02-25T00:44:43;51.03;;;14.73;;
40967;SDS011;57377;45.130;6.038;2023-02-25T00:47:10;43.78;;;12.57;;
40967;SDS011;57377;45.130;6.038;2023-02-25T00:49:35;39.28;;;11.60;;
40967;SDS011;57377;45.130;6.038;2023-02-25T00:52:01;45.03;;;10.90;;
40967;SDS011;57377;45.130;6.038;2023-02-25T00:54:26;37.28;;;10.10;;
40967;SDS011;57377;45.130;6.038;2023-02-25T00:56:52;34.25;;;7.80;;
40967;SDS011;57377;45.130;6.038;2023-02-25T00:59:17;22.77;;;7.18;;
40967;SDS011;57377;45.130;6.038;2023-02-25T01:01:43;30.88;;;7.80;;
40967;SDS011;57377;45.130;6.038;2023-02-25T01:04:08;30.90;;;7.47;;
40967;SDS011;57377;45.130;6.038;2023-02-25T01:06:34;32.00;;;8.68;;
40967;SDS011;57377;45.130;6.038;2023-02-25T01:11:30;31.25;;;6.70;;
40967;SDS011;57377;45.130;6.038;2023-02-25T01:13:59;24.50;;;6.82;;
40967;SDS011;57377;45.130;6.038;2023-02-25T01:16:29;28.95;;;6.10;;
40967;SDS011;57377;45.130;6.038;2023-02-25T01:18:57;31.58;;;5.75;;
40967;SDS011;57377;45.130;6.038;2023-02-25T01:21:29;31.27;;;6.65;;
40967;SDS011;57377;45.130;6.038;2023-02-25T01:24:00;23.58;;;6.93;;
40967;SDS011;57377;45.130;6.038;2023-02-25T01:26:28;28.40;;;5.85;;
40967;SDS011;57377;45.130;6.038;2023-02-25T01:28:56;24.73;;;6.75;;
40967;SDS011;57377;45.130;6.038;2023-02-25T01:31:22;26.52;;;7.15;;
40967;SDS011;57377;45.130;6.038;2023-02-25T01:33:57;28.42;;;6.55;;
40967;SDS011;57377;45.130;6.038;2023-02-25T01:36:23;17.27;;;6.72;;
40967;SDS011;57377;45.130;6.038;2023-02-25T01:38:49;19.35;;;6.00;;
40967;SDS011;57377;45.130;6.038;2023-02-25T01:41:15;26.88;;;5.53;;
40967;SDS011;57377;45.130;6.038;2023-02-25T01:43:41;27.23;;;5.88;;
40967;SDS011;57377;45.130;6.038;2023-02-25T01:46:06;17.20;;;4.35;;
40967;SDS011;57377;45.130;6.038;2023-02-25T01:48:33;20.38;;;4.82;;
40967;SDS011;57377;45.130;6.038;2023-02-25T01:51:07;19.88;;;5.35;;
40967;SDS011;57377;45.130;6.038;2023-02-25T01:53:41;22.75;;;6.60;;
40967;SDS011;57377;45.130;6.038;2023-02-25T01:56:09;33.88;;;8.07;;
40967;SDS011;57377;45.130;6.038;2023-02-25T02:01:02;32.40;;;6.68;;
40967;SDS011;57377;45.130;6.038;2023-02-25T02:03:31;34.05;;;7.50;;
40967;SDS011;57377;45.130;6.038;2023-02-25T02:08:28;19.40;;;7.15;;
40967;SDS011;57377;45.130;6.038;2023-02-25T02:13:21;27.77;;;8.48;;
40967;SDS011;57377;45.130;6.038;2023-02-25T02:15:54;28.25;;;7.68;;
40967;SDS011;57377;45.130;6.038;2023-02-25T02:18:23;21.17;;;5.53;;
40967;SDS011;57377;45.130;6.038;2023-02-25T02:20:57;32.67;;;6.47;;
40967;SDS011;57377;45.130;6.038;2023-02-25T02:29:12;29.55;;;5.93;;
40967;SDS011;57377;45.130;6.038;2023-02-25T02:37:24;21.98;;;4.53;;
40967;SDS011;57377;45.130;6.038;2023-02-25T02:40:10;26.80;;;4.88;;
40967;SDS011;57377;45.130;6.038;2023-02-25T02:45:38;16.85;;;5.13;;
40967;SDS011;57377;45.130;6.038;2023-02-25T02:48:33;19.70;;;4.78;;
40967;SDS011;57377;45.130;6.038;2023-02-25T02:51:14;33.83;;;5.82;;
40967;SDS011;57377;45.130;6.038;2023-02-25T02:53:46;24.83;;;5.68;;
40967;SDS011;57377;45.130;6.038;2023-02-25T02:56:17;20.08;;;5.95;;
40967;SDS011;57377;45.130;6.038;2023-02-25T03:01:17;30.10;;;5.75;;
40967;SDS011;57377;45.130;6.038;2023-02-25T03:03:51;33.25;;;5.65;;
40967;SDS011;57377;45.130;6.038;2023-02-25T03:06:30;27.42;;;5.45;;
40967;SDS011;57377;45.130;6.038;2023-02-25T03:09:08;20.92;;;4.45;;
40967;SDS011;57377;45.130;6.038;2023-02-25T03:11:37;29.17;;;5.63;;
40967;SDS011;57377;45.130;6.038;2023-02-25T03:14:02;21.80;;;4.28;;
40967;SDS011;57377;45.130;6.038;2023-02-25T03:16:33;21.13;;;4.80;;
40967;SDS011;57377;45.130;6.038;2023-02-25T03:21:43;33.67;;;4.88;;
40967;SDS011;57377;45.130;6.038;2023-02-25T03:24:18;22.48;;;5.07;;
40967;SDS011;57377;45.130;6.038;2023-02-25T03:26:47;29.50;;;5.63;;
40967;SDS011;57377;45.130;6.038;2023-02-25T03:29:15;13.45;;;5.05;;
40967;SDS011;57377;45.130;6.038;2023-02-25T03:31:52;27.73;;;5.88;;
40967;SDS011;57377;45.130;6.038;2023-02-25T03:34:32;25.25;;;5.40;;
40967;SDS011;57377;45.130;6.038;2023-02-25T03:37:03;26.77;;;4.85;;
40967;SDS011;57377;45.130;6.038;2023-02-25T03:39:33;15.98;;;4.55;;
40967;SDS011;57377;45.130;6.038;2023-02-25T03:42:02;26.02;;;5.00;;
40967;SDS011;57377;45.130;6.038;2023-02-25T03:44:49;25.55;;;4.95;;
40967;SDS011;57377;45.130;6.038;2023-02-25T03:47:18;17.63;;;4.63;;
40967;SDS011;57377;45.130;6.038;2023-02-25T03:50:28;23.40;;;4.40;;
40967;SDS011;57377;45.130;6.038;2023-02-25T03:52:39;22.35;;;5.22;;
40967;SDS011;57377;45.130;6.038;2023-02-25T03:55:06;19.00;;;5.10;;
40967;SDS011;57377;45.130;6.038;2023-02-25T03:57:40;23.00;;;6.40;;
40967;SDS011;57377;45.130;6.038;2023-02-25T04:00:09;20.38;;;5.53;;
40967;SDS011;57377;45.130;6.038;2023-02-25T04:02:41;30.52;;;5.00;;
40967;SDS011;57377;45.130;6.038;2023-02-25T04:05:08;15.10;;;4.40;;
40967;SDS011;57377;45.130;6.038;2023-02-25T04:07:34;25.10;;;5.30;;
40967;SDS011;57377;45.130;6.038;2023-02-25T04:09:59;18.77;;;4.10;;
40967;SDS011;57377;45.130;6.038;2023-02-25T04:12:25;18.40;;;5.15;;
40967;SDS011;57377;45.130;6.038;2023-02-25T04:14:51;25.48;;;5.72;;
40967;SDS011;57377;45.130;6.038;2023-02-25T04:17:16;31.08;;;5.22;;
40967;SDS011;57377;45.130;6.038;2023-02-25T04:19:43;27.33;;;5.50;;
40967;SDS011;57377;45.130;6.038;2023-02-25T04:22:08;26.50;;;4.97;;
40967;SDS011;57377;45.130;6.038;2023-02-25T04:24:34;21.00;;;5.10;;
40967;SDS011;57377;45.130;6.038;2023-02-25T04:26:59;19.08;;;4.72;;
40967;SDS011;57377;45.130;6.038;2023-02-25T04:29:26;17.38;;;4.72;;
40967;SDS011;57377;45.130;6.038;2023-02-25T04:31:52;18.50;;;5.10;;
40967;SDS011;57377;45.130;6.038;2023-02-25T04:34:17;23.48;;;5.22;;
40967;SDS011;57377;45.130;6.038;2023-02-25T04:36:43;14.77;;;5.13;;
40967;SDS011;57377;45.130;6.038;2023-02-25T04:39:10;16.58;;;4.60;;
40967;SDS011;57377;45.130;6.038;2023-02-25T04:41:36;25.80;;;5.95;;
40967;SDS011;57377;45.130;6.038;2023-02-25T04:44:02;29.00;;;5.57;;
40967;SDS011;57377;45.130;6.038;2023-02-25T04:46:29;25.10;;;5.25;;
40967;SDS011;57377;45.130;6.038;2023-02-25T04:48:55;26.73;;;5.22;;
40967;SDS011;57377;45.130;6.038;2023-02-25T04:51:20;18.60;;;4.90;;
40967;SDS011;57377;45.130;6.038;2023-02-25T04:53:46;27.58;;;6.15;;
40967;SDS011;57377;45.130;6.038;2023-02-25T04:56:12;18.45;;;5.22;;
40967;SDS011;57377;45.130;6.038;2023-02-25T04:58:38;27.30;;;5.25;;
40967;SDS011;57377;45.130;6.038;2023-02-25T05:01:04;24.90;;;4.75;;
40967;SDS011;57377;45.130;6.038;2023-02-25T05:03:32;21.73;;;5.82;;
40967;SDS011;57377;45.130;6.038;2023-02-25T05:05:59;24.77;;;5.40;;
40967;SDS011;57377;45.130;6.038;2023-02-25T05:08:24;23.17;;;6.40;;
40967;SDS011;57377;45.130;6.038;2023-02-25T05:10:50;18.08;;;4.82;;
40967;SDS011;57377;45.130;6.038;2023-02-25T05:13:16;19.15;;;6.00;;
40967;SDS011;57377;45.130;6.038;2023-02-25T05:15:42;28.05;;;5.95;;
40967;SDS011;57377;45.130;6.038;2023-02-25T05:18:08;33.80;;;6.00;;
40967;SDS011;57377;45.130;6.038;2023-02-25T05:20:33;27.45;;;5.80;;
40967;SDS011;57377;45.130;6.038;2023-02-25T05:23:03;23.85;;;6.25;;
40967;SDS011;57377;45.130;6.038;2023-02-25T05:25:29;25.63;;;6.45;;
40967;SDS011;57377;45.130;6.038;2023-02-25T05:27:54;22.50;;;7.78;;
40967;SDS011;57377;45.130;6.038;2023-02-25T05:30:20;36.30;;;7.22;;
40967;SDS011;57377;45.130;6.038;2023-02-25T05:32:45;28.30;;;5.53;;
40967;SDS011;57377;45.130;6.038;2023-02-25T05:35:11;26.30;;;4.72;;
40967;SDS011;57377;45.130;6.038;2023-02-25T05:37:36;20.98;;;5.18;;
40967;SDS011;57377;45.130;6.038;2023-02-25T05:40:02;24.83;;;5.03;;
40967;SDS011;57377;45.130;6.038;2023-02-25T05:42:28;31.48;;;4.70;;
40967;SDS011;57377;45.130;6.038;2023-02-25T05:44:53;22.70;;;5.78;;
40967;SDS011;57377;45.130;6.038;2023-02-25T05:47:19;30.35;;;4.85;;
40967;SDS011;57377;45.130;6.038;2023-02-25T05:49:44;27.60;;;5.45;;
40967;SDS011;57377;45.130;6.038;2023-02-25T05:52:10;37.75;;;5.32;;
40967;SDS011;57377;45.130;6.038;2023-02-25T05:54:37;29.58;;;6.65;;
40967;SDS011;57377;45.130;6.038;2023-02-25T05:57:03;28.35;;;7.00;;
40967;SDS011;57377;45.130;6.038;2023-02-25T05:59:28;29.20;;;5.55;;
40967;SDS011;57377;45.130;6.038;2023-02-25T06:01:55;21.20;;;6.00;;
40967;SDS011;57377;45.130;6.038;2023-02-25T06:04:20;27.98;;;5.65;;
40967;SDS011;57377;45.130;6.038;2023-02-25T06:06:46;19.70;;;5.30;;
40967;SDS011;57377;45.130;6.038;2023-02-25T06:09:17;18.52;;;5.95;;
40967;SDS011;57377;45.130;6.038;2023-02-25T06:11:43;22.42;;;5.03;;
40967;SDS011;57377;45.130;6.038;2023-02-25T06:14:10;23.92;;;5.00;;
40967;SDS011;57377;45.130;6.038;2023-02-25T06:16:39;21.83;;;4.88;;
40967;SDS011;57377;45.130;6.038;2023-02-25T06:19:05;27.90;;;5.68;;
40967;SDS011;57377;45.130;6.038;2023-02-25T06:21:31;23.30;;;5.18;;
40967;SDS011;57377;45.130;6.038;2023-02-25T06:23:58;26.70;;;4.75;;
40967;SDS011;57377;45.130;6.038;2023-02-25T06:26:24;16.75;;;4.85;;
40967;SDS011;57377;45.130;6.038;2023-02-25T06:28:50;25.80;;;5.85;;
40967;SDS011;57377;45.130;6.038;2023-02-25T06:31:16;24.90;;;6.53;;
40967;SDS011;57377;45.130;6.038;2023-02-25T06:33:42;22.70;;;4.93;;
40967;SDS011;57377;45.130;6.038;2023-02-25T06:36:09;20.05;;;5.05;;
40967;SDS011;57377;45.130;6.038;2023-02-25T06:38:35;22.60;;;5.70;;
40967;SDS011;57377;45.130;6.038;2023-02-25T06:41:07;21.10;;;5.97;;
40967;SDS011;57377;45.130;6.038;2023-02-25T06:43:35;28.13;;;5.72;;
40967;SDS011;57377;45.130;6.038;2023-02-25T06:46:03;35.22;;;6.57;;
40967;SDS011;57377;45.130;6.038;2023-02-25T06:48:33;21.58;;;7.28;;
40967;SDS011;57377;45.130;6.038;2023-02-25T06:50:58;14.52;;;5.60;;
40967;SDS011;57377;45.130;6.038;2023-02-25T06:53:24;31.55;;;6.55;;
40967;SDS011;57377;45.130;6.038;2023-02-25T06:55:49;22.77;;;5.90;;
40967;SDS011;57377;45.130;6.038;2023-02-25T06:58:14;31.58;;;6.43;;
40967;SDS011;57377;45.130;6.038;2023-02-25T07:00:42;28.10;;;8.30;;
40967;SDS011;57377;45.130;6.038;2023-02-25T07:03:13;31.15;;;9.18;;
40967;SDS011;57377;45.130;6.038;2023-02-25T07:05:39;35.33;;;9.65;;
40967;SDS011;57377;45.130;6.038;2023-02-25T07:08:04;33.17;;;7.40;;
40967;SDS011;57377;45.130;6.038;2023-02-25T07:10:30;26.85;;;6.97;;
40967;SDS011;57377;45.130;6.038;2023-02-25T07:12:56;49.80;;;11.80;;
40967;SDS011;57377;45.130;6.038;2023-02-25T07:15:21;71.28;;;20.10;;
40967;SDS011;57377;45.130;6.038;2023-02-25T07:17:46;39.30;;;12.90;;
40967;SDS011;57377;45.130;6.038;2023-02-25T07:20:12;39.50;;;11.27;;
40967;SDS011;57377;45.130;6.038;2023-02-25T07:22:37;36.42;;;8.35;;
40967;SDS011;57377;45.130;6.038;2023-02-25T07:25:03;23.38;;;6.72;;
40967;SDS011;57377;45.130;6.038;2023-02-25T07:27:29;28.88;;;8.38;;
40967;SDS011;57377;45.130;6.038;2023-02-25T07:29:54;28.73;;;9.10;;
40967;SDS011;57377;45.130;6.038;2023-02-25T07:32:20;31.33;;;8.73;;
40967;SDS011;57377;45.130;6.038;2023-02-25T07:34:47;35.63;;;8.38;;
40967;SDS011;57377;45.130;6.038;2023-02-25T07:37:13;21.13;;;6.72;;
40967;SDS011;57377;45.130;6.038;2023-02-25T07:39:38;21.42;;;5.20;;
40967;SDS011;57377;45.130;6.038;2023-02-25T07:42:04;21.83;;;6.57;;
40967;SDS011;57377;45.130;6.038;2023-02-25T07:44:29;26.63;;;5.90;;
40967;SDS011;57377;45.130;6.038;2023-02-25T07:46:55;26.27;;;6.97;;
40967;SDS011;57377;45.130;6.038;2023-02-25T07:49:20;24.08;;;5.60;;
40967;SDS011;57377;45.130;6.038;2023-02-25T07:51:45;25.80;;;5.50;;
40967;SDS011;57377;45.130;6.038;2023-02-25T07:54:11;23.65;;;6.07;;
40967;SDS011;57377;45.130;6.038;2023-02-25T07:56:36;12.15;;;4.55;;
40967;SDS011;57377;45.130;6.038;2023-02-25T07:59:02;23.02;;;4.93;;
40967;SDS011;57377;45.130;6.038;2023-02-25T08:01:28;18.88;;;5.35;;
40967;SDS011;57377;45.130;6.038;2023-02-25T08:03:58;28.00;;;5.80;;
40967;SDS011;57377;45.130;6.038;2023-02-25T08:06:25;23.83;;;6.53;;
40967;SDS011;57377;45.130;6.038;2023-02-25T08:08:51;29.27;;;7.70;;
40967;SDS011;57377;45.130;6.038;2023-02-25T08:11:19;22.50;;;6.40;;
40967;SDS011;57377;45.130;6.038;2023-02-25T08:13:46;30.65;;;8.43;;
40967;SDS011;57377;45.130;6.038;2023-02-25T08:16:12;30.83;;;6.38;;
40967;SDS011;57377;45.130;6.038;2023-02-25T08:18:39;28.90;;;6.97;;
40967;SDS011;57377;45.130;6.038;2023-02-25T08:21:10;28.70;;;5.95;;
40967;SDS011;57377;45.130;6.038;2023-02-25T08:23:36;26.17;;;6.97;;
40967;SDS011;57377;45.130;6.038;2023-02-25T08:26:02;31.00;;;6.25;;
40967;SDS011;57377;45.130;6.038;2023-02-25T08:28:29;28.67;;;7.07;;
40967;SDS011;57377;45.130;6.038;2023-02-25T08:30:55;30.08;;;6.35;;
40967;SDS011;57377;45.130;6.038;2023-02-25T08:33:21;25.63;;;5.95;;
40967;SDS011;57377;45.130;6.038;2023-02-25T08:35:48;27.55;;;6.55;;
40967;SDS011;57377;45.130;6.038;2023-02-25T08:38:14;18.10;;;6.15;;
40967;SDS011;57377;45.130;6.038;2023-02-25T08:40:39;19.92;;;5.85;;
40967;SDS011;57377;45.130;6.038;2023-02-25T08:43:05;23.85;;;5.45;;
40967;SDS011;57377;45.130;6.038;2023-02-25T08:45:31;25.58;;;5.20;;
40967;SDS011;57377;45.130;6.038;2023-02-25T08:47:56;22.60;;;6.50;;
40967;SDS011;57377;45.130;6.038;2023-02-25T08:50:22;31.85;;;6.63;;
40967;SDS011;57377;45.130;6.038;2023-02-25T08:52:51;27.83;;;5.65;;
40967;SDS011;57377;45.130;6.038;2023-02-25T08:55:16;28.98;;;6.63;;
40967;SDS011;57377;45.130;6.038;2023-02-25T08:57:42;19.58;;;5.43;;
40967;SDS011;57377;45.130;6.038;2023-02-25T09:00:09;22.23;;;4.90;;
40967;SDS011;57377;45.130;6.038;2023-02-25T09:02:38;21.40;;;5.28;;
40967;SDS011;57377;45.130;6.038;2023-02-25T09:05:04;23.10;;;6.85;;
40967;SDS011;57377;45.130;6.038;2023-02-25T09:07:29;22.77;;;6.88;;
40967;SDS011;57377;45.130;6.038;2023-02-25T09:09:55;35.72;;;8.02;;
40967;SDS011;57377;45.130;6.038;2023-02-25T09:12:20;32.85;;;7.70;;
40967;SDS011;57377;45.130;6.038;2023-02-25T09:14:46;26.45;;;7.80;;
40967;SDS011;57377;45.130;6.038;2023-02-25T09:17:11;35.00;;;7.22;;
40967;SDS011;57377;45.130;6.038;2023-02-25T09:19:37;25.65;;;6.47;;
40967;SDS011;57377;45.130;6.038;2023-02-25T09:22:03;25.25;;;6.72;;
40967;SDS011;57377;45.130;6.038;2023-02-25T09:24:30;22.50;;;6.95;;
40967;SDS011;57377;45.130;6.038;2023-02-25T09:29:23;34.97;;;6.75;;
40967;SDS011;57377;45.130;6.038;2023-02-25T09:31:48;21.23;;;7.25;;
40967;SDS011;57377;45.130;6.038;2023-02-25T09:34:14;15.43;;;6.43;;
40967;SDS011;57377;45.130;6.038;2023-02-25T09:36:40;18.83;;;6.60;;
40967;SDS011;57377;45.130;6.038;2023-02-25T09:39:05;16.02;;;7.10;;
40967;SDS011;57377;45.130;6.038;2023-02-25T09:41:38;22.83;;;7.47;;
40967;SDS011;57377;45.130;6.038;2023-02-25T09:44:10;16.60;;;7.20;;
40967;SDS011;57377;45.130;6.038;2023-02-25T09:46:40;20.05;;;6.28;;
40967;SDS011;57377;45.130;6.038;2023-02-25T09:49:19;14.55;;;7.43;;
40967;SDS011;57377;45.130;6.038;2023-02-25T09:51:52;17.92;;;6.75;;
40967;SDS011;57377;45.130;6.038;2023-02-25T09:56:54;18.55;;;7.45;;
40967;SDS011;57377;45.130;6.038;2023-02-25T09:59:23;21.75;;;7.18;;
40967;SDS011;57377;45.130;6.038;2023-02-25T10:01:59;17.15;;;6.53;;
40967;SDS011;57377;45.130;6.038;2023-02-25T10:04:44;28.00;;;6.97;;
40967;SDS011;57377;45.130;6.038;2023-02-25T10:07:21;18.10;;;6.50;;
40967;SDS011;57377;45.130;6.038;2023-02-25T10:10:37;12.10;;;5.50;;
40967;SDS011;57377;45.130;6.038;2023-02-25T10:15:46;8.85;;;4.90;;
40967;SDS011;57377;45.130;6.038;2023-02-25T10:26:41;9.88;;;4.90;;
40967;SDS011;57377;45.130;6.038;2023-02-25T10:29:16;14.15;;;4.40;;
40967;SDS011;57377;45.130;6.038;2023-02-25T10:31:48;12.45;;;4.38;;
40967;SDS011;57377;45.130;6.038;2023-02-25T10:34:24;13.70;;;4.07;;
40967;SDS011;57377;45.130;6.038;2023-02-25T10:36:55;8.40;;;4.00;;
40967;SDS011;57377;45.130;6.038;2023-02-25T10:39:23;7.50;;;4.30;;
40967;SDS011;57377;45.130;6.038;2023-02-25T10:41:50;6.72;;;4.55;;
40967;SDS011;57377;45.130;6.038;2023-02-25T10:44:15;10.55;;;4.55;;
40967;SDS011;57377;45.130;6.038;2023-02-25T10:46:43;16.52;;;4.97;;
40967;SDS011;57377;45.130;6.038;2023-02-25T10:54:33;7.47;;;4.25;;
40967;SDS011;57377;45.130;6.038;2023-02-25T10:57:08;10.05;;;4.80;;
40967;SDS011;57377;45.130;6.038;2023-02-25T10:59:39;11.45;;;4.80;;
40967;SDS011;57377;45.130;6.038;2023-02-25T11:04:47;9.57;;;4.50;;
40967;SDS011;57377;45.130;6.038;2023-02-25T11:12:48;11.80;;;4.95;;
40967;SDS011;57377;45.130;6.038;2023-02-25T11:15:37;9.30;;;5.82;;
40967;SDS011;57377;45.130;6.038;2023-02-25T11:20:55;12.48;;;5.15;;
40967;SDS011;57377;45.130;6.038;2023-02-25T11:23:29;13.57;;;5.05;;
40967;SDS011;57377;45.130;6.038;2023-02-25T11:25:58;8.18;;;4.72;;
40967;SDS011;57377;45.130;6.038;2023-02-25T11:28:31;8.07;;;4.72;;
40967;SDS011;57377;45.130;6.038;2023-02-25T11:31:19;11.02;;;5.95;;
40967;SDS011;57377;45.130;6.038;2023-02-25T11:33:51;9.05;;;5.30;;
40967;SDS011;57377;45.130;6.038;2023-02-25T11:36:22;8.57;;;4.32;;
40967;SDS011;57377;45.130;6.038;2023-02-25T11:38:48;11.23;;;5.93;;
40967;SDS011;57377;45.130;6.038;2023-02-25T11:41:22;8.23;;;4.72;;
40967;SDS011;57377;45.130;6.038;2023-02-25T11:43:48;14.68;;;4.78;;
40967;SDS011;57377;45.130;6.038;2023-02-25T11:46:26;11.23;;;5.43;;
40967;SDS011;57377;45.130;6.038;2023-02-25T11:52:07;13.50;;;5.50;;
40967;SDS011;57377;45.130;6.038;2023-02-25T11:54:41;10.27;;;5.25;;
40967;SDS011;57377;45.130;6.038;2023-02-25T11:57:15;8.68;;;5.28;;
40967;SDS011;57377;45.130;6.038;2023-02-25T11:59:47;9.40;;;5.50;;
40967;SDS011;57377;45.130;6.038;2023-02-25T12:02:39;11.07;;;5.78;;
40967;SDS011;57377;45.130;6.038;2023-02-25T12:10:42;12.60;;;6.32;;
40967;SDS011;57377;45.130;6.038;2023-02-25T12:13:28;9.88;;;5.65;;
40967;SDS011;57377;45.130;6.038;2023-02-25T12:21:19;12.52;;;6.70;;
40967;SDS011;57377;45.130;6.038;2023-02-25T12:24:25;11.75;;;6.03;;
40967;SDS011;57377;45.130;6.038;2023-02-25T12:30:19;9.40;;;5.50;;
40967;SDS011;57377;45.130;6.038;2023-02-25T12:41:15;10.40;;;4.75;;
40967;SDS011;57377;45.130;6.038;2023-02-25T13:06:13;9.63;;;5.22;;
40967;SDS011;57377;45.130;6.038;2023-02-25T13:14:39;12.60;;;5.38;;
40967;SDS011;57377;45.130;6.038;2023-02-25T13:31:23;15.27;;;5.13;;
40967;SDS011;57377;45.130;6.038;2023-02-25T13:33:56;12.73;;;5.57;;
40967;SDS011;57377;45.130;6.038;2023-02-25T13:42:12;13.90;;;5.90;;
40967;SDS011;57377;45.130;6.038;2023-02-25T13:52:39;15.00;;;4.32;;
40967;SDS011;57377;45.130;6.038;2023-02-25T13:55:26;9.73;;;5.03;;
40967;SDS011;57377;45.130;6.038;2023-02-25T14:09:24;8.98;;;4.93;;
40967;SDS011;57377;45.130;6.038;2023-02-25T14:12:08;13.20;;;5.18;;
40967;SDS011;57377;45.130;6.038;2023-02-25T14:17:57;11.48;;;6.07;;
40967;SDS011;57377;45.130;6.038;2023-02-25T14:20:45;15.93;;;5.45;;
40967;SDS011;57377;45.130;6.038;2023-02-25T14:45:01;11.00;;;6.88;;
40967;SDS011;57377;45.130;6.038;2023-02-25T14:50:35;12.45;;;7.15;;
40967;SDS011;57377;45.130;6.038;2023-02-25T14:56:22;11.55;;;5.82;;
40967;SDS011;57377;45.130;6.038;2023-02-25T15:10:08;12.48;;;5.25;;
40967;SDS011;57377;45.130;6.038;2023-02-25T15:18:38;15.10;;;5.97;;
40967;SDS011;57377;45.130;6.038;2023-02-25T15:24:08;11.45;;;6.10;;
40967;SDS011;57377;45.130;6.038;2023-02-25T15:26:39;11.52;;;5.75;;
40967;SDS011;57377;45.130;6.038;2023-02-25T15:34:56;12.40;;;5.88;;
40967;SDS011;57377;45.130;6.038;2023-02-25T15:39:53;12.98;;;6.45;;
40967;SDS011;57377;45.130;6.038;2023-02-25T15:42:36;12.02;;;5.72;;
40967;SDS011;57377;45.130;6.038;2023-02-25T16:11:24;8.35;;;5.55;;
40967;SDS011;57377;45.130;6.038;2023-02-25T16:13:51;11.30;;;5.37;;
40967;SDS011;57377;45.130;6.038;2023-02-25T16:16:17;18.52;;;5.68;;
40967;SDS011;57377;45.130;6.038;2023-02-25T16:18:46;11.55;;;6.20;;
40967;SDS011;57377;45.130;6.038;2023-02-25T16:23:41;10.05;;;4.78;;
40967;SDS011;57377;45.130;6.038;2023-02-25T16:31:18;11.43;;;5.75;;
40967;SDS011;57377;45.130;6.038;2023-02-25T16:41:34;11.52;;;5.00;;
40967;SDS011;57377;45.130;6.038;2023-02-25T16:43:59;12.02;;;5.18;;
40967;SDS011;57377;45.130;6.038;2023-02-25T16:46:29;11.40;;;5.40;;
40967;SDS011;57377;45.130;6.038;2023-02-25T16:48:57;15.05;;;5.20;;
40967;SDS011;57377;45.130;6.038;2023-02-25T16:51:28;10.20;;;4.60;;
40967;SDS011;57377;45.130;6.038;2023-02-25T16:56:34;12.52;;;4.82;;
40967;SDS011;57377;45.130;6.038;2023-02-25T17:01:29;12.65;;;5.88;;
40967;SDS011;57377;45.130;6.038;2023-02-25T17:04:00;13.13;;;6.07;;
40967;SDS011;57377;45.130;6.038;2023-02-25T17:06:38;11.45;;;5.60;;
40967;SDS011;57377;45.130;6.038;2023-02-25T17:09:03;16.67;;;6.57;;
40967;SDS011;57377;45.130;6.038;2023-02-25T17:11:29;19.88;;;6.35;;
40967;SDS011;57377;45.130;6.038;2023-02-25T17:13:55;10.95;;;6.18;;
40967;SDS011;57377;45.130;6.038;2023-02-25T17:16:29;16.42;;;5.85;;
40967;SDS011;57377;45.130;6.038;2023-02-25T17:19:00;10.93;;;5.55;;
40967;SDS011;57377;45.130;6.038;2023-02-25T17:21:39;12.63;;;5.95;;
40967;SDS011;57377;45.130;6.038;2023-02-25T17:24:15;13.45;;;5.68;;
40967;SDS011;57377;45.130;6.038;2023-02-25T17:26:47;17.85;;;6.30;;
40967;SDS011;57377;45.130;6.038;2023-02-25T17:29:14;11.25;;;5.93;;
40967;SDS011;57377;45.130;6.038;2023-02-25T17:31:43;10.48;;;5.90;;
40967;SDS011;57377;45.130;6.038;2023-02-25T17:34:31;11.60;;;5.80;;
40967;SDS011;57377;45.130;6.038;2023-02-25T17:36:59;14.40;;;6.13;;
40967;SDS011;57377;45.130;6.038;2023-02-25T17:39:28;21.40;;;6.60;;
40967;SDS011;57377;45.130;6.038;2023-02-25T17:41:54;12.02;;;5.78;;
40967;SDS011;57377;45.130;6.038;2023-02-25T17:47:05;15.68;;;6.35;;
40967;SDS011;57377;45.130;6.038;2023-02-25T17:49:33;10.05;;;6.00;;
40967;SDS011;57377;45.130;6.038;2023-02-25T17:52:01;13.65;;;7.22;;
40967;SDS011;57377;45.130;6.038;2023-02-25T17:54:29;20.20;;;6.90;;
40967;SDS011;57377;45.130;6.038;2023-02-25T17:57:22;16.60;;;7.05;;
40967;SDS011;57377;45.130;6.038;2023-02-25T17:59:57;24.45;;;7.65;;
40967;SDS011;57377;45.130;6.038;2023-02-25T18:02:38;19.55;;;7.55;;
40967;SDS011;57377;45.130;6.038;2023-02-25T18:07:44;18.00;;;8.23;;
40967;SDS011;57377;45.130;6.038;2023-02-25T18:12:57;14.85;;;7.10;;
40967;SDS011;57377;45.130;6.038;2023-02-25T18:15:26;21.00;;;7.82;;
40967;SDS011;57377;45.130;6.038;2023-02-25T18:18:02;20.77;;;7.90;;
40967;SDS011;57377;45.130;6.038;2023-02-25T18:20:30;15.10;;;7.20;;
40967;SDS011;57377;45.130;6.038;2023-02-25T18:23:04;18.02;;;7.22;;
40967;SDS011;57377;45.130;6.038;2023-02-25T18:25:40;16.50;;;7.18;;
40967;SDS011;57377;45.130;6.038;2023-02-25T18:28:11;15.32;;;8.38;;
40967;SDS011;57377;45.130;6.038;2023-02-25T18:30:38;21.42;;;8.77;;
40967;SDS011;57377;45.130;6.038;2023-02-25T18:33:04;15.30;;;8.23;;
40967;SDS011;57377;45.130;6.038;2023-02-25T18:35:29;18.17;;;9.07;;
40967;SDS011;57377;45.130;6.038;2023-02-25T18:37:56;16.15;;;8.65;;
40967;SDS011;57377;45.130;6.038;2023-02-25T18:40:33;24.15;;;8.93;;
40967;SDS011;57377;45.130;6.038;2023-02-25T18:43:03;19.23;;;8.90;;
40967;SDS011;57377;45.130;6.038;2023-02-25T18:45:30;19.10;;;9.50;;
40967;SDS011;57377;45.130;6.038;2023-02-25T18:47:57;15.90;;;8.82;;
40967;SDS011;57377;45.130;6.038;2023-02-25T18:50:24;17.65;;;9.40;;
40967;SDS011;57377;45.130;6.038;2023-02-25T18:52:52;22.45;;;10.70;;
40967;SDS011;57377;45.130;6.038;2023-02-25T18:55:19;17.20;;;9.50;;
40967;SDS011;57377;45.130;6.038;2023-02-25T18:57:49;18.70;;;9.95;;
40967;SDS011;57377;45.130;6.038;2023-02-25T19:00:16;16.88;;;10.02;;
40967;SDS011;57377;45.130;6.038;2023-02-25T19:02:48;20.33;;;9.82;;
40967;SDS011;57377;45.130;6.038;2023-02-25T19:05:24;21.85;;;11.32;;
40967;SDS011;57377;45.130;6.038;2023-02-25T19:07:51;22.00;;;11.30;;
40967;SDS011;57377;45.130;6.038;2023-02-25T19:10:21;19.77;;;9.85;;
40967;SDS011;57377;45.130;6.038;2023-02-25T19:12:49;19.08;;;10.88;;
40967;SDS011;57377;45.130;6.038;2023-02-25T19:15:16;21.17;;;9.60;;